createdAt,value
2019-02-18T00:01:41.635Z,100245.41
2019-02-18T00:04:10.793Z,100251.10
2019-02-18T00:06:39.924Z,100255.48
2019-02-18T00:09:08.963Z,100255.91
2019-02-18T00:11:38.046Z,100255.93
2019-02-18T00:14:07.035Z,100257.25
2019-02-18T00:16:36.113Z,100258.11
2019-02-18T00:19:05.183Z,100258.13
2019-02-18T00:21:34.275Z,100255.52
2019-02-18T00:24:03.399Z,100252.05
2019-02-18T00:26:32.486Z,100247.25
2019-02-18T00:29:01.537Z,100249.88
2019-02-18T00:31:30.659Z,100252.51
2019-02-18T00:33:59.678Z,100246.84
2019-02-18T00:36:28.814Z,100254.25
2019-02-18T00:38:58.411Z,100260.38
2019-02-18T00:41:27.483Z,100261.23
2019-02-18T00:43:56.595Z,100262.12
2019-02-18T00:46:25.702Z,100259.05
2019-02-18T00:48:54.769Z,100257.76
2019-02-18T00:51:23.790Z,100258.20
2019-02-18T00:53:52.853Z,100259.50
2019-02-18T00:56:21.924Z,100258.61
2019-02-18T00:58:51.044Z,100263.86
2019-02-18T01:01:20.093Z,100261.23
2019-02-18T01:03:49.142Z,100262.12
2019-02-18T01:06:18.239Z,100260.81
2019-02-18T01:08:47.313Z,100255.55
2019-02-18T01:11:16.381Z,100258.60
2019-02-18T01:13:45.521Z,100252.94
2019-02-18T01:16:14.595Z,100247.25
2019-02-18T01:18:43.709Z,100248.98
2019-02-18T01:21:12.777Z,100260.77
2019-02-18T01:23:41.947Z,100257.67
2019-02-18T01:26:11.013Z,100258.95
2019-02-18T01:28:40.095Z,100258.92
2019-02-18T01:31:09.146Z,100262.41
2019-02-18T01:33:38.258Z,100264.13
2019-02-18T01:36:08.979Z,100254.54
2019-02-18T01:38:37.989Z,100252.36
2019-02-18T01:41:07.049Z,100254.95
2019-02-18T01:43:36.174Z,100255.83
2019-02-18T01:46:05.206Z,100259.72
2019-02-18T01:48:34.233Z,100256.69
2019-02-18T01:51:03.250Z,100248.83
2019-02-18T01:53:32.389Z,100246.17
2019-02-18T01:56:01.448Z,100250.97
2019-02-18T01:58:30.512Z,100249.19
2019-02-18T02:00:59.539Z,100250.47
2019-02-18T02:03:28.589Z,100246.98
2019-02-18T02:05:57.504Z,100241.75
2019-02-18T02:08:26.558Z,100243.45
2019-02-18T02:10:55.547Z,100242.14
2019-02-18T02:13:29.114Z,100238.19
2019-02-18T02:15:58.919Z,100239.48
2019-02-18T02:18:28.257Z,100236.39
2019-02-18T02:20:57.303Z,100232.91
2019-02-18T02:23:26.326Z,100223.32
2019-02-18T02:25:55.280Z,100230.26
2019-02-18T02:28:24.350Z,100230.67
2019-02-18T02:30:53.373Z,100231.09
2019-02-18T02:33:22.412Z,100230.22
2019-02-18T02:35:51.497Z,100228.88
2019-02-18T02:38:20.510Z,100220.59
2019-02-18T02:40:49.562Z,100224.94
2019-02-18T02:43:18.573Z,100220.56
2019-02-18T02:45:47.642Z,100223.59
2019-02-18T02:48:16.629Z,100227.04
2019-02-18T02:50:45.780Z,100218.76
2019-02-18T02:53:14.653Z,100223.07
2019-02-18T02:55:43.653Z,100217.86
2019-02-18T02:58:12.645Z,100218.29
2019-02-18T03:00:41.749Z,100217.34
2019-02-18T03:03:10.749Z,100211.69
2019-02-18T03:05:39.795Z,100213.39
2019-02-18T03:08:19.852Z,100218.17
2019-02-18T03:10:39.669Z,100220.35
2019-02-18T03:13:08.681Z,100215.11
2019-02-18T03:15:37.782Z,100213.80
2019-02-18T03:18:06.798Z,100214.19
2019-02-18T03:20:35.843Z,100213.27
2019-02-18T03:23:04.866Z,100205.39
2019-02-18T03:25:33.896Z,100208.39
2019-02-18T03:28:10.522Z,100206.61
2019-02-18T03:30:48.595Z,100200.06
2019-02-18T03:33:20.825Z,100209.61
2019-02-18T03:35:50.183Z,100208.28
2019-02-18T03:38:30.876Z,100209.56
2019-02-18T03:40:50.112Z,100213.06
2019-02-18T03:43:19.175Z,100208.68
2019-02-18T03:45:48.279Z,100202.59
2019-02-18T03:48:17.321Z,100209.52
2019-02-18T03:50:46.486Z,100208.64
2019-02-18T03:53:15.487Z,100208.16
2019-02-18T03:55:44.499Z,100208.55
2019-02-18T03:58:13.508Z,100214.19
2019-02-18T04:00:42.541Z,100215.46
2019-02-18T04:03:12.299Z,100213.70
2019-02-18T04:05:41.311Z,100216.28
2019-02-18T04:08:10.301Z,100213.67
2019-02-18T04:10:39.361Z,100211.45
2019-02-18T04:13:08.398Z,100204.09
2019-02-18T04:15:37.457Z,100199.27
2019-02-18T04:18:06.436Z,100203.98
2019-02-18T04:20:35.552Z,100204.84
2019-02-18T04:23:04.600Z,100199.59
2019-02-18T04:25:33.658Z,100200.39
2019-02-18T04:28:02.705Z,100203.44
2019-02-18T04:30:31.709Z,100191.67
2019-02-18T04:33:00.756Z,100195.58
2019-02-18T04:35:29.751Z,100197.73
2019-02-18T04:37:58.772Z,100199.43
2019-02-18T04:40:27.739Z,100201.59
2019-02-18T04:42:56.771Z,100205.05
2019-02-18T04:45:25.817Z,100198.96
2019-02-18T04:47:54.859Z,100202.42
2019-02-18T04:50:23.916Z,100204.14
2019-02-18T04:52:52.930Z,100198.48
2019-02-18T04:55:21.943Z,100195.03
2019-02-18T04:57:50.957Z,100199.80
2019-02-18T05:00:19.987Z,100197.58
2019-02-18T05:02:49.035Z,100198.02
2019-02-18T05:05:18.041Z,100194.95
2019-02-18T05:07:47.067Z,100197.97
2019-02-18T05:10:16.134Z,100195.80
2019-02-18T05:12:45.187Z,100196.63
2019-02-18T05:15:14.246Z,100197.05
2019-02-18T05:17:43.304Z,100204.84
2019-02-18T05:20:12.339Z,100203.53
2019-02-18T05:22:41.334Z,100199.59
2019-02-18T05:25:12.830Z,100193.06
2019-02-18T05:27:41.112Z,100196.52
2019-02-18T05:30:10.216Z,100198.21
2019-02-18T05:32:39.208Z,100193.86
2019-02-18T05:35:08.636Z,100196.44
2019-02-18T05:37:37.662Z,100199.04
2019-02-18T05:40:06.657Z,100192.95
2019-02-18T05:42:35.664Z,100196.85
2019-02-18T05:45:04.700Z,100194.19
2019-02-18T05:47:33.740Z,100193.74
2019-02-18T05:50:02.783Z,100188.95
2019-02-18T05:52:31.808Z,100192.44
2019-02-18T05:55:00.820Z,100195.02
2019-02-18T05:57:29.806Z,100188.92
2019-02-18T05:59:58.870Z,100204.54
2019-02-18T06:02:27.858Z,100188.45
2019-02-18T06:04:56.881Z,100182.80
2019-02-18T06:07:25.869Z,100181.88
2019-02-18T06:09:54.909Z,100174.48
2019-02-18T06:12:23.900Z,100176.20
2019-02-18T06:14:53.005Z,100187.88
2019-02-18T06:17:22.075Z,100180.52
2019-02-18T06:19:51.198Z,100184.39
2019-02-18T06:22:20.234Z,100180.92
2019-02-18T06:24:49.288Z,100184.80
2019-02-18T06:27:19.088Z,100179.98
2019-02-18T06:29:48.231Z,100181.72
2019-02-18T06:32:17.255Z,100182.58
2019-02-18T06:34:46.292Z,100173.47
2019-02-18T06:37:15.366Z,100176.45
2019-02-18T06:39:44.779Z,100177.34
2019-02-18T06:42:13.831Z,100174.77
2019-02-18T06:44:55.098Z,100173.00
2019-02-18T06:47:28.443Z,100166.94
2019-02-18T06:49:57.469Z,100167.79
2019-02-18T06:52:26.515Z,100170.39
2019-02-18T06:54:55.557Z,100169.53
2019-02-18T06:57:37.352Z,100173.53
2019-02-18T07:00:22.528Z,100170.93
2019-02-18T07:03:08.708Z,100169.22
2019-02-18T07:06:08.677Z,100171.44
2019-02-18T07:08:59.811Z,100164.95
2019-02-18T07:11:32.926Z,100175.40
2019-02-18T07:14:01.982Z,100174.12
2019-02-18T07:16:31.091Z,100179.84
2019-02-18T07:19:00.148Z,100179.87
2019-02-18T07:21:29.257Z,100199.45
2019-02-18T07:23:58.295Z,100176.08
2019-02-18T07:26:27.365Z,100181.95
2019-02-18T07:28:56.421Z,100179.83
2019-02-18T07:31:25.468Z,100185.64
2019-02-18T07:33:54.542Z,100177.33
2019-02-18T07:36:24.763Z,100176.19
2019-02-18T07:38:53.769Z,100166.06
2019-02-18T07:41:22.822Z,100171.52
2019-02-18T07:43:51.871Z,100162.28
2019-02-18T07:46:21.073Z,100159.11
2019-02-18T07:48:50.067Z,100159.17
2019-02-18T07:51:19.172Z,100169.27
2019-02-18T07:53:48.255Z,100163.52
2019-02-18T07:56:17.353Z,100162.07
2019-02-18T07:58:46.423Z,100158.16
2019-02-18T08:01:15.491Z,100158.59
2019-02-18T08:03:44.563Z,100160.38
2019-02-18T08:06:13.727Z,100160.73
2019-02-18T08:08:42.800Z,100154.87
2019-02-18T08:11:11.905Z,100151.39
2019-02-18T08:13:40.910Z,100146.58
2019-02-18T08:16:10.042Z,100143.53
2019-02-18T08:18:39.243Z,100151.45
2019-02-18T08:21:08.355Z,100143.94
2019-02-18T08:23:37.389Z,100149.42
2019-02-18T08:26:06.749Z,100140.56
2019-02-18T08:28:35.776Z,100138.11
2019-02-18T08:31:04.825Z,100144.34
2019-02-18T08:33:33.922Z,100143.50
2019-02-18T08:36:03.112Z,100140.09
2019-02-18T08:38:32.287Z,100138.92
2019-02-18T08:41:01.368Z,100135.97
2019-02-18T08:43:30.445Z,100141.48
2019-02-18T08:45:59.449Z,100142.84
2019-02-18T08:48:28.532Z,100143.33
2019-02-18T08:50:57.525Z,100139.71
2019-02-18T08:53:26.644Z,100135.61
2019-02-18T08:55:55.694Z,100129.75
2019-02-18T08:58:24.821Z,100130.30
2019-02-18T09:01:02.332Z,100123.91
2019-02-18T09:03:24.753Z,100123.29
2019-02-18T09:05:53.793Z,100120.66
2019-02-18T09:08:22.924Z,100114.75
2019-02-18T09:10:51.966Z,100118.17
2019-02-18T09:13:20.983Z,100112.19
2019-02-18T09:15:59.655Z,100107.86
2019-02-18T09:18:20.838Z,100105.32
2019-02-18T09:20:49.855Z,100109.55
2019-02-18T09:23:28.458Z,100106.29
2019-02-18T09:26:00.107Z,100104.38
2019-02-18T09:28:29.195Z,100105.53
2019-02-18T09:30:58.358Z,100102.53
2019-02-18T09:33:27.443Z,100102.11
2019-02-18T09:35:56.490Z,100110.59
2019-02-18T09:38:25.735Z,100109.16
2019-02-18T09:40:54.749Z,100104.91
2019-02-18T09:43:23.822Z,100105.20
2019-02-18T09:45:52.949Z,100098.05
2019-02-18T09:48:22.061Z,100105.14
2019-02-18T09:50:51.108Z,100111.42
2019-02-18T09:53:20.264Z,100093.22
2019-02-18T09:55:49.333Z,100098.92
2019-02-18T09:58:18.425Z,100100.67
2019-02-18T10:00:47.369Z,100096.86
2019-02-18T10:03:16.420Z,100096.06
2019-02-18T10:05:45.477Z,100097.07
2019-02-18T10:08:14.668Z,100092.03
2019-02-18T10:10:43.727Z,100090.45
2019-02-18T10:13:12.827Z,100097.62
2019-02-18T10:15:41.928Z,100098.63
2019-02-18T10:18:11.096Z,100093.88
2019-02-18T10:20:40.132Z,100092.47
2019-02-18T10:23:09.302Z,100089.80
2019-02-18T10:25:38.486Z,100090.56
2019-02-18T10:28:07.765Z,100088.92
2019-02-18T10:30:36.971Z,100093.70
2019-02-18T10:33:06.128Z,100092.05
2019-02-18T10:35:35.223Z,100104.38
2019-02-18T10:38:04.245Z,100088.98
2019-02-18T10:40:33.322Z,100090.55
2019-02-18T10:43:02.400Z,100093.61
2019-02-18T10:45:31.549Z,100091.17
2019-02-18T10:48:00.813Z,100072.44
2019-02-18T10:50:32.790Z,100071.69
2019-02-18T10:53:02.204Z,100066.72
2019-02-18T10:55:31.496Z,100067.67
2019-02-18T10:58:00.792Z,100071.02
2019-02-18T11:00:30.470Z,100065.13
2019-02-18T11:02:59.581Z,100059.94
2019-02-18T11:05:28.794Z,100054.30
2019-02-18T11:07:58.378Z,100054.31
2019-02-18T11:10:27.608Z,100051.95
2019-02-18T11:12:56.827Z,100049.52
2019-02-18T11:15:26.465Z,100045.60
2019-02-18T11:17:55.682Z,100038.91
2019-02-18T11:20:24.918Z,100039.16
2019-02-18T11:22:53.980Z,100035.61
2019-02-18T11:25:23.170Z,100027.91
2019-02-18T11:27:52.217Z,100035.93
2019-02-18T11:30:21.692Z,100025.08
2019-02-18T11:32:50.728Z,100021.62
2019-02-18T11:35:19.817Z,100016.27
2019-02-18T11:37:48.942Z,100015.91
2019-02-18T11:40:18.323Z,100011.25
2019-02-18T11:42:47.412Z,100008.48
2019-02-18T11:45:16.581Z,100010.51
2019-02-18T11:47:45.710Z,100000.23
2019-02-18T11:50:14.826Z,100002.00
2019-02-18T11:52:44.014Z,99998.41
2019-02-18T11:55:13.111Z,99995.23
2019-02-18T11:57:42.583Z,99996.76
2019-02-18T12:00:12.326Z,99999.30
2019-02-18T12:02:41.500Z,99995.02
2019-02-18T12:05:10.916Z,99988.84
2019-02-18T12:07:40.087Z,99988.67
2019-02-18T12:10:09.878Z,99980.01
2019-02-18T12:12:39.509Z,99975.10
2019-02-18T12:15:10.792Z,99982.52
2019-02-18T12:17:40.009Z,99972.28
2019-02-18T12:20:12.192Z,99964.60
2019-02-18T12:22:41.470Z,99967.68
2019-02-18T12:25:10.628Z,99970.02
2019-02-18T12:27:40.131Z,99958.66
2019-02-18T12:30:10.554Z,99958.88
2019-02-18T12:32:39.690Z,99950.18
2019-02-18T12:35:08.924Z,99947.89
2019-02-18T12:37:38.141Z,99947.23
2019-02-18T12:40:07.924Z,99940.59
2019-02-18T12:42:37.439Z,99936.25
2019-02-18T12:45:06.785Z,99927.66
2019-02-18T12:47:35.975Z,99921.11
2019-02-18T12:50:05.572Z,99913.52
2019-02-18T12:52:34.794Z,99920.21
2019-02-18T12:55:04.025Z,99907.38
2019-02-18T12:57:33.656Z,99902.53
2019-02-18T13:00:02.861Z,99894.77
2019-02-18T13:02:32.032Z,99894.47
2019-02-18T13:05:01.143Z,99890.08
2019-02-18T13:07:30.222Z,99877.64
2019-02-18T13:09:59.241Z,99879.91
2019-02-18T13:12:28.270Z,99875.98
2019-02-18T13:14:57.365Z,99868.28
2019-02-18T13:17:26.464Z,99863.53
2019-02-18T13:19:55.652Z,99859.91
2019-02-18T13:22:24.753Z,99849.55
2019-02-18T13:24:53.870Z,99852.84
2019-02-18T13:27:22.965Z,99842.45
2019-02-18T13:29:52.052Z,99837.84
2019-02-18T13:32:21.402Z,99824.97
2019-02-18T13:34:50.622Z,99815.48
2019-02-18T13:37:19.681Z,99807.93
2019-02-18T13:39:48.810Z,99804.21
2019-02-18T13:42:17.900Z,99805.38
2019-02-18T13:44:47.885Z,99800.83
2019-02-18T13:47:16.896Z,99798.99
2019-02-18T13:49:46.018Z,99798.23
2019-02-18T13:52:15.191Z,99796.55
2019-02-18T13:54:44.307Z,99798.13
2019-02-18T13:57:13.392Z,99795.09
2019-02-18T13:59:42.599Z,99785.39
2019-02-18T14:02:11.680Z,99785.97
2019-02-18T14:04:40.720Z,99777.85
2019-02-18T14:07:09.732Z,99781.33
2019-02-18T14:09:38.805Z,99782.20
2019-02-18T14:12:15.705Z,99777.54
2019-02-18T14:14:38.797Z,99770.52
2019-02-18T14:17:07.916Z,99770.16
2019-02-18T14:19:37.075Z,99772.20
2019-02-18T14:22:08.006Z,99767.95
2019-02-18T14:24:37.110Z,99770.94
2019-02-18T14:27:06.217Z,99769.09
2019-02-18T14:29:35.348Z,99770.15
2019-02-18T14:32:04.827Z,99763.81
2019-02-18T14:34:34.030Z,99765.84
2019-02-18T14:37:03.222Z,99779.91
2019-02-18T14:39:32.443Z,99771.08
2019-02-18T14:42:01.500Z,99770.83
2019-02-18T14:44:30.619Z,99771.29
2019-02-18T14:47:00.145Z,99766.77
2019-02-18T14:49:29.187Z,99774.67
2019-02-18T14:51:58.315Z,99766.47
2019-02-18T14:54:27.402Z,99763.28
2019-02-18T14:56:56.638Z,99762.98
2019-02-18T14:59:25.730Z,99762.89
2019-02-18T15:01:54.873Z,99768.77
2019-02-18T15:04:23.978Z,99766.41
2019-02-18T15:06:53.090Z,99767.50
2019-02-18T15:09:22.316Z,99773.76
2019-02-18T15:11:51.322Z,99774.02
2019-02-18T15:14:20.442Z,99773.08
2019-02-18T15:16:49.477Z,99759.23
2019-02-18T15:19:18.576Z,99757.93
2019-02-18T15:21:47.654Z,99747.13
2019-02-18T15:24:16.798Z,99745.96
2019-02-18T15:26:45.858Z,99750.95
2019-02-18T15:29:14.866Z,99750.00
2019-02-18T15:31:43.907Z,99748.83
2019-02-18T15:34:13.015Z,99752.64
2019-02-18T15:36:42.051Z,99753.08
2019-02-18T15:39:11.105Z,99766.19
2019-02-18T15:41:40.148Z,99758.48
2019-02-18T15:44:09.160Z,99767.30
2019-02-18T15:46:38.291Z,99758.52
2019-02-18T15:49:07.331Z,99749.68
2019-02-18T15:51:36.413Z,99758.94
2019-02-18T15:54:05.489Z,99765.00
2019-02-18T15:56:34.527Z,99750.92
2019-02-18T15:59:03.643Z,99751.46
2019-02-18T16:01:32.702Z,99752.66
2019-02-18T16:04:01.702Z,99754.38
2019-02-18T16:06:30.752Z,99750.94
2019-02-18T16:08:59.867Z,99755.45
2019-02-18T16:11:28.927Z,99753.99
2019-02-18T16:13:57.925Z,99763.88
2019-02-18T16:16:27.376Z,99760.38
2019-02-18T16:18:56.591Z,99759.52
2019-02-18T16:21:25.687Z,99766.14
2019-02-18T16:23:54.845Z,99760.44
2019-02-18T16:26:23.926Z,99771.70
2019-02-18T16:28:52.954Z,99768.50
2019-02-18T16:31:22.027Z,99771.23
2019-02-18T16:33:51.241Z,99772.53
2019-02-18T16:36:20.380Z,99770.24
2019-02-18T16:38:49.461Z,99784.91
2019-02-18T16:41:18.585Z,99767.30
2019-02-18T16:43:47.667Z,99767.66
2019-02-18T16:46:17.227Z,99767.20
2019-02-18T16:48:46.502Z,99778.25
2019-02-18T16:51:15.580Z,99767.73
2019-02-18T16:53:44.674Z,99773.75
2019-02-18T16:56:13.778Z,99764.05
2019-02-18T16:58:42.771Z,99755.08
2019-02-18T17:01:11.770Z,99750.64
2019-02-18T17:03:40.888Z,99742.63
2019-02-18T17:06:09.961Z,99747.87
2019-02-18T17:08:39.211Z,99766.39
2019-02-18T17:11:08.492Z,99769.26
2019-02-18T17:13:37.630Z,99773.77
2019-02-18T17:16:06.721Z,99768.70
2019-02-18T17:18:36.224Z,99776.53
2019-02-18T17:21:05.477Z,99781.25
2019-02-18T17:23:34.530Z,99786.13
2019-02-18T17:26:03.613Z,99787.36
2019-02-18T17:28:32.633Z,99783.55
2019-02-18T17:31:01.672Z,99784.94
2019-02-18T17:33:31.094Z,99792.59
2019-02-18T17:36:00.176Z,99780.13
2019-02-18T17:38:29.288Z,99777.16
2019-02-18T17:40:58.296Z,99777.36
2019-02-18T17:43:27.389Z,99780.70
2019-02-18T17:45:56.548Z,99772.95
2019-02-18T17:48:26.017Z,99797.33
2019-02-18T17:50:55.128Z,99771.14
2019-02-18T17:53:24.256Z,99767.03
2019-02-18T17:55:53.365Z,99777.15
2019-02-18T17:58:22.596Z,99776.95
2019-02-18T18:00:53.911Z,99768.67
2019-02-18T18:03:23.601Z,99765.22
2019-02-18T18:05:52.768Z,99764.93
2019-02-18T18:08:21.921Z,99767.41
2019-02-18T18:10:50.994Z,99771.45
2019-02-18T18:13:25.188Z,99773.30
2019-02-18T18:15:51.005Z,99783.02
2019-02-18T18:18:20.511Z,99782.73
2019-02-18T18:20:49.645Z,99784.98
2019-02-18T18:23:18.705Z,99784.16
2019-02-18T18:25:47.753Z,99788.17
2019-02-18T18:28:16.792Z,99783.45
2019-02-18T18:30:45.823Z,99784.91
2019-02-18T18:33:15.340Z,99787.64
2019-02-18T18:35:44.448Z,99788.68
2019-02-18T18:38:13.498Z,99793.95
2019-02-18T18:40:42.567Z,99801.08
2019-02-18T18:43:11.591Z,99798.97
2019-02-18T18:45:40.792Z,99804.32
2019-02-18T18:48:10.105Z,99796.63
2019-02-18T18:50:39.245Z,99805.00
2019-02-18T18:53:08.436Z,99803.81
2019-02-18T18:55:37.543Z,99793.36
2019-02-18T18:58:06.607Z,99798.24
2019-02-18T19:00:35.715Z,99799.69
2019-02-18T19:03:05.433Z,99797.56
2019-02-18T19:05:34.523Z,99802.91
2019-02-18T19:08:03.547Z,99801.52
2019-02-18T19:10:32.582Z,99806.94
2019-02-18T19:13:01.604Z,99805.77
2019-02-18T19:15:30.810Z,99800.06
2019-02-18T19:17:59.901Z,99808.55
2019-02-18T19:20:29.078Z,99817.70
2019-02-18T19:22:58.151Z,99807.79
2019-02-18T19:25:27.185Z,99809.61
2019-02-18T19:27:56.216Z,99813.56
2019-02-18T19:30:26.983Z,99814.55
2019-02-18T19:32:56.189Z,99814.97
2019-02-18T19:35:25.263Z,99818.11
2019-02-18T19:37:54.389Z,99819.03
2019-02-18T19:40:23.483Z,99819.91
2019-02-18T19:42:52.621Z,99816.49
2019-02-18T19:45:22.580Z,99835.79
2019-02-18T19:47:51.697Z,99820.05
2019-02-18T19:50:20.753Z,99812.23
2019-02-18T19:52:49.913Z,99831.53
2019-02-18T19:55:18.982Z,99815.29
2019-02-18T19:57:48.074Z,99814.52
2019-02-18T20:00:17.925Z,99820.71
2019-02-18T20:02:47.039Z,99816.83
2019-02-18T20:05:16.137Z,99823.43
2019-02-18T20:07:45.269Z,99818.67
2019-02-18T20:10:14.377Z,99816.55
2019-02-18T20:12:43.611Z,99804.78
2019-02-18T20:15:13.058Z,99808.74
2019-02-18T20:17:42.290Z,99813.17
2019-02-18T20:20:12.001Z,99818.89
2019-02-18T20:22:41.149Z,99815.03
2019-02-18T20:25:10.244Z,99814.64
2019-02-18T20:27:39.374Z,99816.44
2019-02-18T20:30:08.915Z,99816.45
2019-02-18T20:32:38.021Z,99819.98
2019-02-18T20:35:07.755Z,99814.73
2019-02-18T20:37:37.007Z,99812.11
2019-02-18T20:40:06.477Z,99818.73
2019-02-18T20:42:35.616Z,99819.65
2019-02-18T20:45:04.777Z,99820.13
2019-02-18T20:47:33.818Z,99819.75
2019-02-18T20:50:02.875Z,99816.30
2019-02-18T20:52:31.978Z,99813.67
2019-02-18T20:55:01.004Z,99806.69
2019-02-18T20:57:30.152Z,99811.94
2019-02-18T20:59:59.156Z,99811.54
2019-02-18T21:02:28.146Z,99812.86
2019-02-18T21:04:57.118Z,99815.95
2019-02-18T21:07:26.152Z,99815.53
2019-02-18T21:09:55.310Z,99831.30
2019-02-18T21:12:24.449Z,99809.89
2019-02-18T21:14:53.544Z,99812.56
2019-02-18T21:17:22.676Z,99814.77
2019-02-18T21:19:51.795Z,99807.82
2019-02-18T21:22:20.832Z,99812.25
2019-02-18T21:24:49.948Z,99814.88
2019-02-18T21:27:18.969Z,99819.29
2019-02-18T21:29:48.108Z,99817.09
2019-02-18T21:32:17.110Z,99823.67
2019-02-18T21:34:46.232Z,99821.50
2019-02-18T21:37:15.297Z,99824.13
2019-02-18T21:39:44.427Z,99821.05
2019-02-18T21:42:13.495Z,99823.66
2019-02-18T21:44:42.597Z,99827.60
2019-02-18T21:47:11.638Z,99822.83
2019-02-18T21:49:40.723Z,99829.88
2019-02-18T21:52:09.807Z,99827.73
2019-02-18T21:54:38.816Z,99840.89
2019-02-18T21:57:07.839Z,99828.63
2019-02-18T21:59:37.040Z,99831.72
2019-02-18T22:02:06.098Z,99831.72
2019-02-18T22:04:35.152Z,99833.52
2019-02-18T22:07:10.022Z,99828.77
2019-02-18T22:09:39.011Z,99834.48
2019-02-18T22:12:08.275Z,99832.84
2019-02-18T22:14:37.302Z,99834.16
2019-02-18T22:17:06.320Z,99828.95
2019-02-18T22:19:35.367Z,99832.97
2019-02-18T22:22:04.373Z,99835.17
2019-02-18T22:24:33.481Z,99830.34
2019-02-18T22:27:02.492Z,99836.91
2019-02-18T22:29:31.963Z,99829.95
2019-02-18T22:32:00.996Z,99828.67
2019-02-18T22:34:29.987Z,99831.73
2019-02-18T22:36:58.991Z,99837.45
2019-02-18T22:39:28.389Z,99833.95
2019-02-18T22:41:57.437Z,99837.93
2019-02-18T22:44:27.356Z,99828.33
2019-02-18T22:46:56.358Z,99824.38
2019-02-18T22:49:25.331Z,99821.30
2019-02-18T22:51:54.337Z,99821.28
2019-02-18T22:54:23.271Z,99823.91
2019-02-18T22:56:54.459Z,99816.89
2019-02-18T22:59:23.472Z,99818.66
2019-02-18T23:01:52.499Z,99820.82
2019-02-18T23:04:21.516Z,99823.84
2019-02-18T23:06:50.519Z,99816.81
2019-02-18T23:09:19.629Z,99823.86
2019-02-18T23:11:48.726Z,99822.46
2019-02-18T23:14:17.783Z,99821.55
2019-02-18T23:16:46.993Z,99819.38
2019-02-18T23:19:15.980Z,99820.24
2019-02-18T23:21:44.984Z,99821.08
2019-02-18T23:24:14.009Z,99825.02
2019-02-18T23:26:43.060Z,99817.99
2019-02-18T23:29:12.090Z,99818.03
2019-02-18T23:31:41.149Z,99819.77
2019-02-18T23:34:10.236Z,99817.57
2019-02-18T23:36:39.262Z,99821.08
2019-02-18T23:39:08.288Z,99817.57
2019-02-18T23:41:37.342Z,99816.72
2019-02-18T23:44:06.358Z,99820.24
2019-02-18T23:46:35.493Z,99818.94
2019-02-18T23:49:04.527Z,99818.13
2019-02-18T23:51:33.702Z,99825.17
2019-02-18T23:54:02.722Z,99823.45
2019-02-18T23:56:31.839Z,99820.82
2019-02-18T23:59:00.854Z,99822.66
